createdAt,value
2019-01-04T00:00:30.901Z,6.4
2019-01-04T00:03:30.797Z,6.4
2019-01-04T00:06:30.576Z,6.4
2019-01-04T00:09:30.355Z,6.4
2019-01-04T00:12:30.490Z,6.4
2019-01-04T00:15:30.665Z,6.4
2019-01-04T00:18:30.700Z,6.4
2019-01-04T00:21:31.104Z,6.4
2019-01-04T00:24:30.283Z,6.4
2019-01-04T00:27:30.345Z,6.4
2019-01-04T00:30:30.374Z,6.4
2019-01-04T00:33:30.621Z,6.4
2019-01-04T00:36:30.907Z,6.4
2019-01-04T00:39:30.897Z,6.4
2019-01-04T00:42:30.642Z,6.4
2019-01-04T00:45:31.155Z,6.4
2019-01-04T00:48:30.695Z,6.4
2019-01-04T00:51:30.480Z,6.4
2019-01-04T00:54:30.436Z,6.4
2019-01-04T00:57:30.290Z,6.4
2019-01-04T01:00:30.878Z,6.5
2019-01-04T01:03:30.900Z,6.5
2019-01-04T01:06:31.406Z,6.5
2019-01-04T01:09:30.835Z,6.5
2019-01-04T01:12:30.293Z,6.5
2019-01-04T01:15:30.598Z,6.5
2019-01-04T01:18:30.372Z,6.5
2019-01-04T01:21:30.710Z,6.5
2019-01-04T01:24:30.829Z,6.5
2019-01-04T01:27:30.449Z,6.5
2019-01-04T01:30:30.772Z,6.5
2019-01-04T01:33:30.255Z,6.5
2019-01-04T01:36:30.379Z,6.5
2019-01-04T01:39:30.618Z,6.5
2019-01-04T01:42:30.720Z,6.5
2019-01-04T01:45:30.208Z,6.5
2019-01-04T01:48:30.379Z,6.5
2019-01-04T01:51:30.357Z,6.5
2019-01-04T01:54:30.758Z,6.5
2019-01-04T01:57:30.869Z,6.5
2019-01-04T02:00:30.457Z,6.5
2019-01-04T02:03:30.305Z,6.5
2019-01-04T02:06:30.508Z,6.5
2019-01-04T02:09:30.432Z,6.5
2019-01-04T02:12:30.305Z,6.5
2019-01-04T02:15:30.368Z,6.5
2019-01-04T02:18:30.303Z,6.5
2019-01-04T02:21:30.542Z,6.5
2019-01-04T02:24:30.634Z,6.5
2019-01-04T02:27:30.342Z,6.5
2019-01-04T02:30:30.915Z,6.5
2019-01-04T02:33:30.629Z,6.5
2019-01-04T02:36:30.510Z,6.5
2019-01-04T02:39:30.483Z,6.5
2019-01-04T02:42:30.357Z,6.5
2019-01-04T02:45:31.382Z,6.5
2019-01-04T02:48:30.185Z,6.5
2019-01-04T02:51:30.244Z,6.5
2019-01-04T02:54:30.531Z,6.5
2019-01-04T02:57:31.297Z,6.5
2019-01-04T03:00:30.777Z,6.6
2019-01-04T03:03:30.389Z,6.6
2019-01-04T03:06:30.587Z,6.6
2019-01-04T03:09:30.411Z,6.6
2019-01-04T03:12:30.572Z,6.6
2019-01-04T03:15:30.209Z,6.6
2019-01-04T03:18:30.337Z,6.6
2019-01-04T03:21:30.487Z,6.6
2019-01-04T03:24:30.896Z,6.6
2019-01-04T03:27:30.407Z,6.6
2019-01-04T03:30:30.724Z,6.6
2019-01-04T03:33:30.777Z,6.6
2019-01-04T03:36:30.359Z,6.6
2019-01-04T03:39:30.420Z,6.6
2019-01-04T03:42:30.733Z,6.6
2019-01-04T03:45:30.202Z,6.6
2019-01-04T03:48:30.402Z,6.6
2019-01-04T03:51:30.443Z,6.6
2019-01-04T03:54:30.474Z,6.6
2019-01-04T03:57:30.202Z,6.6
2019-01-04T04:00:30.179Z,6.6
2019-01-04T04:03:30.534Z,6.6
2019-01-04T04:06:30.470Z,6.6
2019-01-04T04:09:30.396Z,6.6
2019-01-04T04:12:30.268Z,6.6
2019-01-04T04:15:30.187Z,6.6
2019-01-04T04:18:30.413Z,6.6
2019-01-04T04:21:30.523Z,6.6
2019-01-04T04:24:30.086Z,6.6
2019-01-04T04:27:30.464Z,6.6
2019-01-04T04:30:30.633Z,6.6
2019-01-04T04:33:30.403Z,6.6
2019-01-04T04:36:30.404Z,6.6
2019-01-04T04:39:30.061Z,6.6
2019-01-04T04:42:30.118Z,6.6
2019-01-04T04:45:30.165Z,6.6
2019-01-04T04:48:30.578Z,6.6
2019-01-04T04:51:30.259Z,6.6
2019-01-04T04:54:30.444Z,6.6
2019-01-04T04:57:30.136Z,6.6
2019-01-04T05:00:30.365Z,6.7
2019-01-04T05:03:30.288Z,6.7
2019-01-04T05:06:30.642Z,6.7
2019-01-04T05:09:30.462Z,6.7
2019-01-04T05:12:29.958Z,6.7
2019-01-04T05:15:30.580Z,6.7
2019-01-04T05:18:30.401Z,6.7
2019-01-04T05:21:30.393Z,6.7
2019-01-04T05:24:30.258Z,6.7
2019-01-04T05:27:30.524Z,6.7
2019-01-04T05:30:30.147Z,6.7
2019-01-04T05:33:30.205Z,6.7
2019-01-04T05:36:30.324Z,6.7
2019-01-04T05:39:30.394Z,6.7
2019-01-04T05:42:30.059Z,6.7
2019-01-04T05:45:30.255Z,6.7
2019-01-04T05:48:30.138Z,6.7
2019-01-04T05:51:30.410Z,6.7
2019-01-04T05:54:30.352Z,6.7
2019-01-04T05:57:30.035Z,6.7
2019-01-04T06:00:30.591Z,6.5
2019-01-04T06:03:30.234Z,6.5
2019-01-04T06:06:30.510Z,6.5
2019-01-04T06:09:30.263Z,6.5
2019-01-04T06:12:30.424Z,6.5
2019-01-04T06:15:30.385Z,6.5
2019-01-04T06:18:30.158Z,6.5
2019-01-04T06:21:30.170Z,6.5
2019-01-04T06:24:30.115Z,6.5
2019-01-04T06:27:31.094Z,6.5
2019-01-04T06:30:30.296Z,6.5
2019-01-04T06:33:30.490Z,6.5
2019-01-04T06:36:30.959Z,6.5
2019-01-04T06:39:30.561Z,6.5
2019-01-04T06:42:31.105Z,6.5
2019-01-04T06:45:30.915Z,6.5
2019-01-04T06:48:30.388Z,6.5
2019-01-04T06:51:30.211Z,6.5
2019-01-04T06:54:30.426Z,6.5
2019-01-04T06:57:30.102Z,6.5
2019-01-04T07:00:30.025Z,6.3
2019-01-04T07:03:30.380Z,6.3
2019-01-04T07:06:30.356Z,6.3
2019-01-04T07:09:30.623Z,6.3
2019-01-04T07:12:30.779Z,6.3
2019-01-04T07:15:30.089Z,6.3
2019-01-04T07:18:30.134Z,6.3
2019-01-04T07:21:30.167Z,6.3
2019-01-04T07:24:30.109Z,6.3
2019-01-04T07:27:30.552Z,6.3
2019-01-04T07:30:30.800Z,6.3
2019-01-04T07:33:30.512Z,6.3
2019-01-04T07:36:30.384Z,6.3
2019-01-04T07:39:30.954Z,6.3
2019-01-04T07:42:30.446Z,6.3
2019-01-04T07:45:30.236Z,6.3
2019-01-04T07:48:30.536Z,6.3
2019-01-04T07:51:30.288Z,6.3
2019-01-04T07:54:31.671Z,6.3
2019-01-04T07:57:30.070Z,6.3
2019-01-04T08:00:30.500Z,6.3
2019-01-04T08:03:30.634Z,6.3
2019-01-04T08:06:30.221Z,6.3
2019-01-04T08:09:30.635Z,6.3
2019-01-04T08:12:30.189Z,6.3
2019-01-04T08:15:30.394Z,6.3
2019-01-04T08:18:30.147Z,6.3
2019-01-04T08:21:30.262Z,6.3
2019-01-04T08:24:30.374Z,6.3
2019-01-04T08:27:30.238Z,6.3
2019-01-04T08:30:30.397Z,6.3
2019-01-04T08:33:30.025Z,6.3
2019-01-04T08:36:30.092Z,6.3
2019-01-04T08:39:30.135Z,6.3
2019-01-04T08:42:30.524Z,6.3
2019-01-04T08:45:31.294Z,6.3
2019-01-04T08:48:30.424Z,6.3
2019-01-04T08:51:30.936Z,6.3
2019-01-04T08:54:30.320Z,6.3
2019-01-04T08:57:30.071Z,6.3
2019-01-04T09:00:30.542Z,6.1
2019-01-04T09:03:30.121Z,6.1
2019-01-04T09:06:30.313Z,6.1
2019-01-04T09:09:30.018Z,6.1
2019-01-04T09:12:30.194Z,6.1
2019-01-04T09:15:30.060Z,6.1
2019-01-04T09:18:30.067Z,6.1
2019-01-04T09:21:30.491Z,6.1
2019-01-04T09:24:30.494Z,6.1
2019-01-04T09:27:30.273Z,6.1
2019-01-04T09:30:30.702Z,6.1
2019-01-04T09:33:30.460Z,6.1
2019-01-04T09:36:30.217Z,6.1
2019-01-04T09:39:30.539Z,6.1
2019-01-04T09:42:30.241Z,6.1
2019-01-04T09:45:30.458Z,6.1
2019-01-04T09:48:30.458Z,6.1
2019-01-04T09:51:31.181Z,6.1
2019-01-04T09:54:30.708Z,6.1
2019-01-04T09:57:30.647Z,6.1
2019-01-04T10:00:30.555Z,6
2019-01-04T10:03:30.105Z,6
2019-01-04T10:06:30.401Z,6
2019-01-04T10:09:30.075Z,6
2019-01-04T10:12:30.362Z,6
2019-01-04T10:15:30.280Z,6
2019-01-04T10:18:29.990Z,6
2019-01-04T10:21:31.009Z,6
2019-01-04T10:24:30.252Z,6
2019-01-04T10:27:30.422Z,6
2019-01-04T10:30:30.469Z,6
2019-01-04T10:33:30.488Z,6
2019-01-04T10:36:30.128Z,6
2019-01-04T10:39:30.231Z,6
2019-01-04T10:42:30.072Z,6
2019-01-04T10:45:30.071Z,6
2019-01-04T10:48:30.341Z,6
2019-01-04T10:51:30.028Z,6
2019-01-04T10:54:30.198Z,6
2019-01-04T10:57:30.271Z,6
2019-01-04T11:00:30.144Z,5.9
2019-01-04T11:03:30.407Z,5.9
2019-01-04T11:06:30.222Z,5.9
2019-01-04T11:09:30.042Z,5.9
2019-01-04T11:12:30.446Z,5.9
2019-01-04T11:15:30.070Z,5.9
2019-01-04T11:18:30.323Z,5.9
2019-01-04T11:21:30.136Z,5.9
2019-01-04T11:24:30.749Z,5.9
2019-01-04T11:27:30.166Z,5.9
2019-01-04T11:30:30.051Z,5.9
2019-01-04T11:33:30.241Z,5.9
2019-01-04T11:36:30.200Z,5.9
2019-01-04T11:39:30.182Z,5.9
2019-01-04T11:42:30.565Z,5.9
2019-01-04T11:45:30.005Z,5.9
2019-01-04T11:48:29.988Z,5.9
2019-01-04T11:51:30.931Z,5.9
2019-01-04T11:54:30.219Z,5.9
2019-01-04T11:57:30.267Z,5.9
2019-01-04T12:00:30.546Z,5.4
2019-01-04T12:03:29.990Z,5.4
2019-01-04T12:06:30.391Z,5.4
2019-01-04T12:09:30.333Z,5.4
2019-01-04T12:12:30.282Z,5.4
2019-01-04T12:15:30.363Z,5.4
2019-01-04T12:18:31.086Z,5.4
2019-01-04T12:21:30.564Z,5.4
2019-01-04T12:24:30.080Z,5.4
2019-01-04T12:27:30.106Z,5.4
2019-01-04T12:30:30.182Z,5.4
2019-01-04T12:33:30.336Z,5.4
2019-01-04T12:36:30.488Z,5.4
2019-01-04T12:39:29.922Z,5.4
2019-01-04T12:42:30.009Z,5.4
2019-01-04T12:45:30.492Z,5.4
2019-01-04T12:48:30.298Z,5.4
2019-01-04T12:51:30.389Z,5.4
2019-01-04T12:54:30.367Z,5.4
2019-01-04T12:57:29.985Z,5.4
2019-01-04T13:00:30.056Z,5
2019-01-04T13:03:30.319Z,5
2019-01-04T13:06:30.875Z,5
2019-01-04T13:09:30.520Z,5
2019-01-04T13:12:30.465Z,5
2019-01-04T13:15:30.526Z,5
2019-01-04T13:18:30.021Z,5
2019-01-04T13:21:30.545Z,5
2019-01-04T13:24:30.477Z,5
2019-01-04T13:27:30.350Z,5
2019-01-04T13:30:29.880Z,5
2019-01-04T13:33:30.091Z,5
2019-01-04T13:36:30.636Z,5
2019-01-04T13:39:30.946Z,5
2019-01-04T13:42:30.189Z,5
2019-01-04T13:45:30.522Z,5
2019-01-04T13:48:30.868Z,5
2019-01-04T13:51:30.394Z,5
2019-01-04T13:54:30.565Z,5
2019-01-04T13:57:30.229Z,5
2019-01-04T14:00:30.247Z,4.9
2019-01-04T14:03:30.501Z,4.9
2019-01-04T14:06:29.831Z,4.9
2019-01-04T14:09:29.955Z,4.9
2019-01-04T14:12:30.295Z,4.9
2019-01-04T14:15:30.951Z,4.9
2019-01-04T14:18:30.215Z,4.9
2019-01-04T14:21:30.130Z,4.9
2019-01-04T14:24:30.066Z,4.9
2019-01-04T14:27:30.496Z,4.9
2019-01-04T14:30:30.096Z,4.9
2019-01-04T14:33:30.007Z,4.9
2019-01-04T14:36:30.032Z,4.9
2019-01-04T14:39:29.952Z,4.9
2019-01-04T14:42:29.832Z,4.9
2019-01-04T14:45:30.523Z,4.9
2019-01-04T14:48:30.071Z,4.9
2019-01-04T14:51:30.348Z,4.9
2019-01-04T14:54:30.154Z,4.9
2019-01-04T14:57:30.069Z,4.9
2019-01-04T15:00:29.859Z,4.8
2019-01-04T15:03:29.954Z,4.8
2019-01-04T15:06:30.301Z,4.8
2019-01-04T15:09:30.386Z,4.8
2019-01-04T15:12:30.219Z,4.8
2019-01-04T15:15:29.953Z,4.8
2019-01-04T15:18:29.837Z,4.8
2019-01-04T15:21:30.305Z,4.8
2019-01-04T15:24:30.340Z,4.8
2019-01-04T15:27:30.442Z,4.8
2019-01-04T15:30:30.647Z,4.8
2019-01-04T15:33:29.912Z,4.8
2019-01-04T15:36:29.901Z,4.8
2019-01-04T15:39:30.466Z,4.8
2019-01-04T15:42:30.054Z,4.8
2019-01-04T15:45:30.193Z,4.8
2019-01-04T15:48:30.920Z,4.8
2019-01-04T15:51:30.421Z,4.8
2019-01-04T15:54:30.173Z,4.8
2019-01-04T15:57:30.228Z,4.8
2019-01-04T16:00:29.957Z,4.8
2019-01-04T16:03:30.186Z,4.8
2019-01-04T16:06:30.354Z,4.8
2019-01-04T16:09:30.230Z,4.8
2019-01-04T16:12:29.893Z,4.8
2019-01-04T16:15:29.872Z,4.8
2019-01-04T16:18:29.981Z,4.8
2019-01-04T16:21:30.083Z,4.8
2019-01-04T16:24:30.111Z,4.8
2019-01-04T16:27:29.814Z,4.8
2019-01-04T16:30:29.983Z,4.8
2019-01-04T16:33:30.209Z,4.8
2019-01-04T16:36:30.201Z,4.8
2019-01-04T16:39:30.624Z,4.8
2019-01-04T16:42:30.250Z,4.8
2019-01-04T16:45:29.770Z,4.8
2019-01-04T16:48:29.925Z,4.8
2019-01-04T16:51:30.148Z,4.8
2019-01-04T16:54:30.183Z,4.8
2019-01-04T16:57:30.352Z,4.8
2019-01-04T17:00:29.928Z,4.6
2019-01-04T17:03:31.130Z,4.6
2019-01-04T17:06:30.433Z,4.6
2019-01-04T17:09:30.180Z,4.6
2019-01-04T17:12:30.131Z,4.6
2019-01-04T17:15:30.563Z,4.6
2019-01-04T17:18:30.186Z,4.6
2019-01-04T17:21:29.924Z,4.6
2019-01-04T17:24:29.905Z,4.6
2019-01-04T17:27:30.195Z,4.6
2019-01-04T17:30:30.722Z,4.6
2019-01-04T17:33:30.093Z,4.6
2019-01-04T17:36:30.125Z,4.6
2019-01-04T17:39:30.130Z,4.6
2019-01-04T17:42:30.290Z,4.6
2019-01-04T17:45:30.802Z,4.6
2019-01-04T17:48:30.029Z,4.6
2019-01-04T17:51:30.480Z,4.6
2019-01-04T17:54:30.004Z,4.6
2019-01-04T17:57:30.277Z,4.6
2019-01-04T18:00:29.968Z,4.5
2019-01-04T18:03:29.972Z,4.5
2019-01-04T18:06:30.255Z,4.5
2019-01-04T18:09:29.884Z,4.5
2019-01-04T18:12:29.843Z,4.5
2019-01-04T18:15:29.893Z,4.5
2019-01-04T18:18:31.060Z,4.5
2019-01-04T18:21:30.208Z,4.5
2019-01-04T18:24:30.038Z,4.5
2019-01-04T18:27:30.079Z,4.5
2019-01-04T18:30:30.760Z,4.5
2019-01-04T18:33:30.143Z,4.5
2019-01-04T18:36:30.387Z,4.5
2019-01-04T18:39:30.064Z,4.5
2019-01-04T18:42:29.740Z,4.5
2019-01-04T18:45:29.955Z,4.5
2019-01-04T18:48:29.892Z,4.5
2019-01-04T18:51:30.173Z,4.5
2019-01-04T18:54:29.797Z,4.5
2019-01-04T18:57:29.746Z,4.5
2019-01-04T19:00:30.788Z,4.4
2019-01-04T19:03:29.807Z,4.4
2019-01-04T19:06:31.683Z,4.4
2019-01-04T19:09:30.895Z,4.4
2019-01-04T19:12:29.918Z,4.4
2019-01-04T19:15:30.084Z,4.4
2019-01-04T19:18:30.235Z,4.4
2019-01-04T19:21:30.997Z,4.4
2019-01-04T19:24:30.408Z,4.4
2019-01-04T19:27:29.994Z,4.4
2019-01-04T19:30:30.343Z,4.4
2019-01-04T19:33:30.228Z,4.4
2019-01-04T19:36:29.833Z,4.4
2019-01-04T19:39:29.860Z,4.4
2019-01-04T19:42:30.250Z,4.4
2019-01-04T19:45:30.262Z,4.4
2019-01-04T19:48:29.808Z,4.4
2019-01-04T19:51:29.750Z,4.4
2019-01-04T19:54:29.842Z,4.4
2019-01-04T19:57:29.819Z,4.4
2019-01-04T20:00:29.797Z,4.3
2019-01-04T20:03:29.840Z,4.3
2019-01-04T20:06:29.817Z,4.3
2019-01-04T20:09:29.821Z,4.3
2019-01-04T20:12:30.005Z,4.3
2019-01-04T21:01:02.954Z,3.6
2019-01-04T21:04:03.624Z,3.6
2019-01-04T21:07:03.251Z,3.6
2019-01-04T22:02:44.419Z,3.7
2019-01-04T22:05:43.460Z,3.7
2019-01-04T22:08:43.312Z,3.7
2019-01-04T22:11:43.356Z,3.7
2019-01-04T22:14:44.125Z,3.7
2019-01-04T22:17:43.811Z,3.7
2019-01-04T22:20:43.722Z,3.7
2019-01-04T22:23:43.760Z,3.7
2019-01-04T22:26:44.279Z,3.7
2019-01-04T22:29:43.468Z,3.7
2019-01-04T22:32:43.556Z,3.7
2019-01-04T22:35:43.594Z,3.7
2019-01-04T22:38:43.299Z,3.7
2019-01-04T22:41:43.662Z,3.7
2019-01-04T22:44:43.414Z,3.7
2019-01-04T22:47:43.550Z,3.7
2019-01-04T22:50:43.654Z,3.7
2019-01-04T22:53:43.643Z,3.7
2019-01-04T22:56:43.525Z,3.7
2019-01-04T22:59:43.893Z,3.7
2019-01-04T23:02:43.570Z,3.8
2019-01-04T23:05:44.244Z,3.8
2019-01-04T23:08:43.314Z,3.8
2019-01-04T23:11:43.564Z,3.8
2019-01-04T23:14:43.444Z,3.8
2019-01-04T23:17:43.605Z,3.8
2019-01-04T23:20:43.473Z,3.8
2019-01-04T23:23:43.497Z,3.8
2019-01-04T23:26:43.259Z,3.8
2019-01-04T23:29:43.478Z,3.8
2019-01-04T23:32:43.516Z,3.8
2019-01-04T23:35:43.828Z,3.8
2019-01-04T23:38:43.903Z,3.8
2019-01-04T23:41:43.338Z,3.8
2019-01-04T23:44:43.421Z,3.8
2019-01-04T23:47:43.486Z,3.8
2019-01-04T23:50:43.633Z,3.8
2019-01-04T23:53:43.943Z,3.8
2019-01-04T23:56:43.685Z,3.8
2019-01-04T23:59:43.303Z,3.8
